Time;durP1;ratioP1;P1;durP2;ratioP2;P2;SDS_P1;SDS_P2;PMS_P1;PMS_P2;Temp;Humidity;BMP_temperature;BMP_pressure;BME280_temperature;BME280_humidity;BME280_pressure;Samples;Min_cycle;Max_cycle;Signal;HPM_P1;HPM_P2
2022/03/19 00:00:23;;;;;;;44.28;19.25;;;;;;;6.78;80.20;100538.88;5096947;28;20021;-66
2022/03/19 00:02:49;;;;;;;42.30;19.55;;;;;;;6.78;80.10;100533.66;5085659;28;20038;-66
2022/03/19 00:05:14;;;;;;;45.13;19.75;;;;;;;6.73;80.49;100536.13;5085567;28;20024;-66
2022/03/19 00:07:40;;;;;;;51.45;21.55;;;;;;;6.77;80.72;100543.22;5085777;28;20036;-66
2022/03/19 00:10:08;;;;;;;47.83;20.30;;;;;;;6.72;80.68;100530.88;5085695;28;20308;-66
2022/03/19 00:12:39;;;;;;;53.05;22.27;;;;;;;6.63;80.75;100528.91;5085408;28;20032;-66
2022/03/19 00:15:06;;;;;;;48.80;19.67;;;;;;;6.64;81.31;100541.13;5085290;28;20040;-66
2022/03/19 00:17:32;;;;;;;47.33;20.73;;;;;;;6.63;81.02;100549.81;5085384;28;20385;-66
2022/03/19 00:19:57;;;;;;;41.22;19.45;;;;;;;6.63;80.78;100545.50;5085045;28;20020;-66
2022/03/19 00:22:23;;;;;;;53.15;21.92;;;;;;;6.58;81.29;100540.97;5085304;28;20066;-66
2022/03/19 00:24:49;;;;;;;47.25;21.38;;;;;;;6.60;81.18;100534.06;5085196;28;20077;-66
2022/03/19 00:27:14;;;;;;;39.75;20.48;;;;;;;6.58;81.64;100540.97;5085199;28;20024;-66
2022/03/19 00:29:39;;;;;;;49.08;20.30;;;;;;;6.58;81.54;100533.13;5085120;28;20024;-66
2022/03/19 00:32:05;;;;;;;50.05;22.17;;;;;;;6.55;81.61;100526.06;5085050;28;20047;-66
2022/03/19 00:34:32;;;;;;;47.53;21.67;;;;;;;6.52;81.66;100532.97;5085015;28;20028;-66
2022/03/19 00:36:58;;;;;;;47.95;23.05;;;;;;;6.55;81.66;100531.31;5084904;28;20048;-66
2022/03/19 00:39:24;;;;;;;54.60;21.83;;;;;;;6.56;81.87;100533.06;5084851;28;20035;-66
2022/03/19 00:41:49;;;;;;;52.55;22.60;;;;;;;6.51;81.87;100533.81;5084899;28;20028;-66
2022/03/19 00:44:14;;;;;;;46.13;20.02;;;;;;;6.52;82.01;100531.22;5084820;28;20020;-66
2022/03/19 00:46:40;;;;;;;48.38;22.60;;;;;;;6.53;81.56;100526.88;5073745;28;20317;-66
2022/03/19 00:49:05;;;;;;;45.20;20.42;;;;;;;6.47;81.68;100530.25;5064730;28;20317;-66
2022/03/19 00:51:32;;;;;;;47.70;21.98;;;;;;;6.50;82.07;100526.81;5064678;28;20025;-66
2022/03/19 00:53:57;;;;;;;45.83;20.45;;;;;;;6.44;82.24;100537.09;5064913;28;20029;-66
2022/03/19 00:56:23;;;;;;;51.75;23.08;;;;;;;6.59;81.76;100522.69;5064622;28;20044;-66
2022/03/19 00:58:48;;;;;;;45.08;22.00;;;;;;;6.57;82.04;100528.72;5064557;28;20059;-66
2022/03/19 01:01:14;;;;;;;47.70;23.00;;;;;;;6.58;81.23;100520.03;5064507;28;20052;-66
2022/03/19 01:03:39;;;;;;;59.65;23.08;;;;;;;6.57;81.75;100528.72;5075438;28;20188;-66
2022/03/19 01:06:04;;;;;;;50.47;24.35;;;;;;;6.57;81.45;100519.16;5093475;28;20021;-66
2022/03/19 01:08:30;;;;;;;51.28;24.13;;;;;;;6.50;81.98;100521.56;5084419;28;20048;-66
2022/03/19 01:10:56;;;;;;;48.25;22.23;;;;;;;6.50;81.62;100521.56;5084552;28;20315;-66
2022/03/19 01:13:21;;;;;;;59.20;25.67;;;;;;;6.47;81.90;100521.50;5084136;28;20020;-66
2022/03/19 01:15:46;;;;;;;58.35;24.98;;;;;;;6.46;81.85;100519.72;5084369;28;20039;-66
2022/03/19 01:18:12;;;;;;;57.70;24.10;;;;;;;6.42;82.16;100518.75;5084508;28;20071;-66
2022/03/19 01:20:38;;;;;;;54.17;23.73;;;;;;;6.39;82.29;100525.63;5084244;28;20081;-66
2022/03/19 01:23:03;;;;;;;51.42;23.67;;;;;;;6.45;82.01;100523.16;5084187;28;20297;-66
2022/03/19 01:25:29;;;;;;;54.95;23.77;;;;;;;6.43;81.92;100511.81;5084148;28;20243;-66
2022/03/19 01:27:54;;;;;;;55.78;23.98;;;;;;;6.39;82.11;100517.78;5084058;28;20035;-66
2022/03/19 01:30:24;;;;;;;54.17;25.25;;;;;;;6.39;82.07;100523.00;5084072;28;20216;-66
2022/03/19 01:32:50;;;;;;;50.65;24.10;;;;;;;6.44;81.94;100516.19;5083605;28;20020;-66
2022/03/19 01:35:17;;;;;;;59.50;23.63;;;;;;;6.44;81.58;100508.34;5084298;28;20257;-66
2022/03/19 01:37:43;;;;;;;57.03;25.70;;;;;;;6.43;81.87;100509.19;5084043;28;20312;-66
2022/03/19 01:40:11;;;;;;;57.55;23.92;;;;;;;6.36;82.02;100512.50;5083987;28;20040;-66
2022/03/19 01:42:41;;;;;;;64.85;25.02;;;;;;;6.42;82.15;100507.38;5083942;28;20028;-66
2022/03/19 01:45:16;;;;;;;50.65;24.65;;;;;;;6.39;81.79;100512.53;5083895;28;20021;-66
2022/03/19 01:47:42;;;;;;;52.92;22.95;;;;;;;6.42;81.56;100505.66;5064618;28;20025;-66
2022/03/19 01:50:10;;;;;;;60.20;23.02;;;;;;;6.42;81.59;100512.63;5063797;28;20074;-66
2022/03/19 01:52:35;;;;;;;50.38;22.13;;;;;;;6.42;81.55;100507.38;5063804;28;20029;-66
2022/03/19 01:55:01;;;;;;;59.38;25.70;;;;;;;6.37;81.49;100501.16;5063775;28;20025;-66
2022/03/19 01:57:29;;;;;;;55.13;24.48;;;;;;;6.36;81.54;100507.25;5063760;28;20029;-66
2022/03/19 01:59:57;;;;;;;56.25;23.42;;;;;;;6.33;81.24;100499.31;5063772;28;20025;-66
2022/03/19 02:02:25;;;;;;;55.55;24.80;;;;;;;6.29;81.78;100498.34;5063704;28;20033;-66
2022/03/19 02:04:52;;;;;;;60.10;24.48;;;;;;;6.41;81.26;100496.06;5063951;28;20082;-66
2022/03/19 02:07:17;;;;;;;58.17;24.77;;;;;;;6.30;81.55;100501.84;5063581;28;20025;-66
2022/03/19 02:09:43;;;;;;;53.35;23.80;;;;;;;6.29;81.60;100505.28;5081430;28;20201;-66
2022/03/19 02:12:09;;;;;;;53.47;23.33;;;;;;;6.14;82.23;100505.75;5100793;28;20047;-66
2022/03/19 02:14:36;;;;;;;53.90;22.55;;;;;;;6.17;82.17;100510.22;5103764;28;20036;-66
2022/03/19 02:17:04;;;;;;;49.00;24.20;;;;;;;6.14;82.04;100497.06;5103896;28;20020;-66
2022/03/19 02:19:30;;;;;;;46.20;21.42;;;;;;;6.08;82.13;100494.25;5104094;28;20020;-66
2022/03/19 02:21:56;;;;;;;47.55;24.65;;;;;;;6.01;82.48;100503.66;5104080;28;20374;-66
2022/03/19 02:27:06;;;;;;;58.88;24.08;;;;;;;5.96;82.66;100496.53;5103725;28;20038;-66
2022/03/19 02:29:32;;;;;;;56.58;24.70;;;;;;;5.92;82.41;100492.94;5103770;28;20320;-66
2022/03/19 02:31:59;;;;;;;54.83;22.25;;;;;;;5.87;82.76;100494.53;5103754;28;20083;-66
2022/03/19 02:34:26;;;;;;;51.55;22.25;;;;;;;5.92;82.56;100499.91;5103690;28;20024;-66
2022/03/19 02:36:52;;;;;;;54.58;22.35;;;;;;;6.14;81.21;100512.75;5103697;28;20023;-66
2022/03/19 02:39:20;;;;;;;59.60;23.17;;;;;;;6.16;80.86;100491.00;5103648;28;20024;-66
2022/03/19 02:41:48;;;;;;;46.20;23.08;;;;;;;6.08;81.12;100495.13;5103673;28;20024;-66
2022/03/19 02:44:16;;;;;;;46.70;20.85;;;;;;;6.06;81.31;100496.84;5106972;28;20069;-66
2022/03/19 02:46:46;;;;;;;54.30;23.45;;;;;;;6.01;81.25;100492.31;5096318;28;20016;-66
2022/03/19 02:49:13;;;;;;;50.17;23.35;;;;;;;5.90;81.60;100485.88;5087149;28;20073;-66
2022/03/19 02:51:40;;;;;;;53.25;21.90;;;;;;;5.71;82.37;100481.84;5086994;28;20024;-66
2022/03/19 02:54:07;;;;;;;56.63;22.10;;;;;;;5.61;82.77;100473.69;5086999;28;20095;-66
2022/03/19 02:56:34;;;;;;;50.67;22.05;;;;;;;5.45;83.40;100482.81;5086941;28;20020;-66
2022/03/19 02:59:23;;;;;;;50.78;22.45;;;;;;;5.35;83.81;100479.84;5086914;28;20024;-66
2022/03/19 03:01:50;;;;;;;44.80;20.98;;;;;;;5.45;83.49;100480.19;5086899;28;20017;-66
2022/03/19 03:04:16;;;;;;;58.03;23.58;;;;;;;5.40;83.48;100478.25;5087032;28;20024;-66
2022/03/19 03:06:44;;;;;;;50.20;22.20;;;;;;;5.53;82.82;100470.84;5086947;28;20197;-66
2022/03/19 03:09:10;;;;;;;47.38;22.65;;;;;;;5.50;82.69;100469.84;5086709;28;20047;-66
2022/03/19 03:11:36;;;;;;;59.72;22.42;;;;;;;5.57;82.47;100464.84;5086603;28;20028;-66
2022/03/19 03:14:03;;;;;;;49.13;23.17;;;;;;;5.54;82.41;100466.50;5087654;28;20033;-66
2022/03/19 03:16:32;;;;;;;48.05;21.67;;;;;;;5.87;80.81;100463.19;5084494;28;20008;-66
2022/03/19 03:19:00;;;;;;;51.22;21.83;;;;;;;6.03;79.54;100467.09;5106808;28;20085;-66
2022/03/19 03:21:27;;;;;;;55.08;22.65;;;;;;;5.95;79.43;100471.25;5106747;28;20040;-66
2022/03/19 03:23:54;;;;;;;46.65;21.60;;;;;;;6.08;78.86;100468.97;5106998;28;20095;-66
2022/03/19 03:26:20;;;;;;;43.65;18.92;;;;;;;6.03;78.75;100467.09;5106617;28;20275;-66
2022/03/19 03:28:45;;;;;;;50.22;20.80;;;;;;;6.01;78.91;100471.41;5106636;28;20031;-66
2022/03/19 03:31:11;;;;;;;47.97;20.13;;;;;;;6.05;78.71;100478.50;5106555;28;20035;-66
2022/03/19 03:33:36;;;;;;;51.33;22.52;;;;;;;5.93;79.01;100471.19;5106509;28;20028;-66
2022/03/19 03:36:02;;;;;;;45.72;21.58;;;;;;;5.89;79.15;100465.84;5106484;28;20095;-66
2022/03/19 03:38:27;;;;;;;51.13;20.52;;;;;;;5.75;80.03;100467.13;5106425;28;20054;-66
2022/03/19 03:40:53;;;;;;;44.20;18.63;;;;;;;5.51;81.41;100466.41;5106369;28;20027;-66
2022/03/19 03:43:18;;;;;;;53.65;23.05;;;;;;;5.20;82.42;100464.63;5106385;28;20024;-66
2022/03/19 03:45:44;;;;;;;37.17;18.23;;;;;;;5.19;83.21;100462.81;5103143;28;20312;-66
2022/03/19 03:48:10;;;;;;;39.83;18.23;;;;;;;5.12;83.58;100463.47;5085928;28;20087;-66
2022/03/19 03:50:37;;;;;;;43.00;20.05;;;;;;;5.03;83.58;100459.72;5085932;28;20046;-66
2022/03/19 03:53:06;;;;;;;49.95;21.35;;;;;;;5.26;82.57;100463.91;5085893;28;20050;-66
2022/03/19 03:55:33;;;;;;;47.17;21.52;;;;;;;5.35;81.38;100464.19;5085553;28;20028;-66
2022/03/19 03:58:03;;;;;;;53.47;22.55;;;;;;;5.37;81.58;100459.88;5085786;28;20243;-66
2022/03/19 04:00:30;;;;;;;46.63;20.83;;;;;;;5.42;81.10;100460.91;5085728;28;20092;-66
2022/03/19 04:02:56;;;;;;;43.83;20.48;;;;;;;5.51;80.34;100461.19;5085930;28;20363;-66
2022/03/19 04:05:21;;;;;;;43.13;19.60;;;;;;;5.60;79.75;100461.47;5085649;28;20025;-66
2022/03/19 04:07:47;;;;;;;52.92;22.40;;;;;;;5.71;79.38;100465.28;5085765;28;20047;-66
2022/03/19 04:10:12;;;;;;;48.10;22.80;;;;;;;5.78;78.86;100459.38;5085500;28;20092;-66
2022/03/19 04:12:38;;;;;;;50.20;23.48;;;;;;;5.82;78.42;100463.91;5085497;28;20091;-66
2022/03/19 04:15:07;;;;;;;45.38;21.88;;;;;;;5.94;78.11;100459.91;5085269;28;20043;-66
2022/03/19 04:17:33;;;;;;;56.05;21.75;;;;;;;5.94;77.63;100464.22;5085371;28;20020;-66
2022/03/19 04:19:58;;;;;;;41.50;19.95;;;;;;;5.93;77.83;100455.53;5091973;28;20031;-66
2022/03/19 04:22:39;;;;;;;50.95;21.67;;;;;;;5.92;77.86;100452.88;5091037;28;20066;-66
2022/03/19 04:25:19;;;;;;;53.38;22.08;;;;;;;6.03;77.08;100451.41;5085299;28;20045;-66
2022/03/19 04:27:49;;;;;;;51.58;21.52;;;;;;;6.11;76.65;100452.53;5085210;28;20024;-66
2022/03/19 04:30:16;;;;;;;50.47;22.90;;;;;;;6.14;76.28;100453.47;5085191;28;20032;-66
2022/03/19 04:32:44;;;;;;;44.55;20.52;;;;;;;6.07;76.66;100448.03;5085203;28;20030;-66
2022/03/19 04:38:13;;;;;;;43.97;19.77;;;;;;;5.77;78.45;100457.59;5085005;28;20024;-66
2022/03/19 04:40:39;;;;;;;42.28;19.63;;;;;;;5.41;79.40;100452.19;5084926;28;20030;-66
2022/03/19 04:43:06;;;;;;;67.00;22.08;;;;;;;5.40;79.49;100457.38;5084849;28;20259;-66
2022/03/19 04:45:32;;;;;;;42.25;19.40;;;;;;;5.17;80.82;100453.19;5083235;28;20035;-66
2022/03/19 04:47:58;;;;;;;49.28;20.15;;;;;;;5.21;80.46;100444.59;5064734;28;20028;-66
2022/03/19 04:50:24;;;;;;;47.85;20.60;;;;;;;5.06;80.81;100444.16;5064754;28;20025;-66
2022/03/19 04:52:50;;;;;;;48.22;21.10;;;;;;;5.07;81.22;100453.75;5064698;28;20029;-66
2022/03/19 04:55:16;;;;;;;52.97;20.55;;;;;;;5.19;80.49;100447.16;5064674;28;20029;-66
2022/03/19 04:57:41;;;;;;;46.47;19.52;;;;;;;5.47;79.16;100454.13;5064659;28;20084;-66
2022/03/19 05:00:10;;;;;;;52.90;21.42;;;;;;;5.53;78.96;100449.06;5064587;28;20075;-66
2022/03/19 05:02:35;;;;;;;48.90;20.48;;;;;;;5.55;78.52;100457.81;5064492;28;20075;-66
2022/03/19 05:05:01;;;;;;;50.13;21.50;;;;;;;5.71;77.89;100444.38;5064461;28;20029;-66
2022/03/19 05:07:27;;;;;;;45.67;20.67;;;;;;;5.61;78.27;100444.94;5064286;28;20020;-66
2022/03/19 05:12:40;;;;;;;50.75;21.70;;;;;;;5.61;77.90;100442.34;5064393;28;20040;-66
2022/03/19 05:15:10;;;;;;;45.75;20.40;;;;;;;5.59;77.53;100444.00;5064152;28;20268;-66
2022/03/19 05:17:35;;;;;;;48.95;21.25;;;;;;;5.74;77.44;100439.22;5064282;28;20027;-66
2022/03/19 05:20:01;;;;;;;50.63;18.48;;;;;;;5.69;77.45;100440.81;5064225;28;20044;-66
2022/03/19 05:22:29;;;;;;;51.50;22.23;;;;;;;5.67;77.36;100432.94;5064218;28;20024;-66
2022/03/19 05:24:56;;;;;;;46.08;20.73;;;;;;;5.60;77.81;100440.56;5076505;28;20020;-66
2022/03/19 05:27:22;;;;;;;52.63;20.30;;;;;;;5.39;78.44;100442.56;5092196;28;20062;-66
2022/03/19 05:29:48;;;;;;;50.10;21.75;;;;;;;5.21;79.04;100439.38;5084077;28;20020;-66
2022/03/19 05:32:14;;;;;;;46.25;20.88;;;;;;;5.32;78.78;100438.84;5084107;28;20031;-66
2022/03/19 05:34:40;;;;;;;46.58;20.90;;;;;;;5.49;78.04;100441.97;5084360;28;20061;-66
2022/03/19 05:37:06;;;;;;;42.00;20.70;;;;;;;5.44;78.43;100451.41;5084068;28;20026;-66
2022/03/19 05:39:32;;;;;;;39.33;17.52;;;;;;;5.49;78.02;100444.59;5084005;28;20020;-66
2022/03/19 05:41:58;;;;;;;49.92;21.17;;;;;;;5.54;77.74;100456.94;5084267;28;20286;-66
2022/03/19 05:44:24;;;;;;;41.65;18.90;;;;;;;5.54;77.85;100450.84;5084027;28;20020;-66
2022/03/19 05:46:49;;;;;;;52.85;21.10;;;;;;;5.52;77.63;100452.50;5071690;28;20021;-66
2022/03/19 05:49:15;;;;;;;46.83;20.70;;;;;;;5.51;77.80;100450.75;5063829;28;20025;-66
2022/03/19 05:51:41;;;;;;;41.15;19.92;;;;;;;5.56;77.62;100451.75;5063847;28;20049;-66
2022/03/19 05:54:07;;;;;;;49.40;20.67;;;;;;;5.56;77.58;100446.53;5064029;28;20016;-66
2022/03/19 05:56:32;;;;;;;44.20;21.23;;;;;;;5.51;77.66;100446.38;5064029;28;20021;-66
2022/03/19 05:58:59;;;;;;;46.83;20.27;;;;;;;5.39;78.77;100445.16;5063747;28;20096;-66
2022/03/19 06:01:28;;;;;;;51.72;21.20;;;;;;;5.59;77.39;100446.63;5063713;28;20021;-66
2022/03/19 06:03:55;;;;;;;51.63;21.88;;;;;;;5.78;76.87;100446.31;5063984;28;20098;-66
2022/03/19 06:06:21;;;;;;;48.88;22.17;;;;;;;5.95;76.11;100435.50;5063854;28;20239;-66
2022/03/19 06:08:46;;;;;;;42.40;20.00;;;;;;;6.06;75.90;100438.44;5063606;28;20027;-66
2022/03/19 06:11:12;;;;;;;40.80;18.50;;;;;;;6.11;75.36;100435.09;5063577;28;20067;-66
2022/03/19 06:13:37;;;;;;;44.92;20.67;;;;;;;6.17;75.51;100434.38;5063673;28;20021;-66
2022/03/19 06:16:03;;;;;;;42.33;18.58;;;;;;;6.21;75.16;100434.47;5063625;28;20021;-66
2022/03/19 06:18:29;;;;;;;46.28;20.15;;;;;;;6.31;75.09;100441.75;5065762;28;20155;-66
2022/03/19 06:20:56;;;;;;;41.60;19.77;;;;;;;6.34;75.24;100430.47;5067859;28;20032;-66
2022/03/19 06:23:22;;;;;;;43.08;18.60;;;;;;;6.24;75.83;100424.09;5067538;28;20020;-66
2022/03/19 06:25:48;;;;;;;45.90;16.73;;;;;;;6.32;75.82;100426.91;5067530;28;20025;-66
2022/03/19 06:28:14;;;;;;;43.22;17.05;;;;;;;6.59;74.75;100432.88;5067409;28;20027;-66
2022/03/19 06:30:39;;;;;;;43.70;16.67;;;;;;;6.59;74.33;100432.88;5088871;28;20024;-66
2022/03/19 06:33:06;;;;;;;41.22;19.13;;;;;;;6.90;73.21;100445.88;5091207;28;20024;-66
2022/03/19 06:38:16;;;;;;;52.65;20.58;;;;;;;7.71;68.94;100455.56;5087375;28;20074;-66
2022/03/19 06:40:42;;;;;;;42.38;20.65;;;;;;;8.08;67.38;100433.56;5087537;28;20028;-66
2022/03/19 06:43:07;;;;;;;46.88;18.85;;;;;;;8.52;66.74;100438.78;5087222;28;20024;-66
2022/03/19 06:45:33;;;;;;;44.55;20.20;;;;;;;8.68;65.51;100438.19;5085515;28;20028;-66
2022/03/19 06:47:58;;;;;;;46.80;19.77;;;;;;;8.93;65.27;100447.38;5067041;28;20320;-66
2022/03/19 06:50:23;;;;;;;49.05;20.58;;;;;;;9.06;64.06;100437.94;5067076;28;20024;-66
2022/03/19 06:52:49;;;;;;;45.53;20.60;;;;;;;9.27;63.41;100443.53;5067013;28;20031;-66
2022/03/19 06:55:14;;;;;;;42.17;20.52;;;;;;;9.41;62.54;100452.47;5066992;28;20066;-66
2022/03/19 06:57:40;;;;;;;53.17;20.33;;;;;;;9.85;61.46;100432.91;5067037;28;20020;-66
2022/03/19 07:00:06;;;;;;;47.78;18.95;;;;;;;10.13;62.25;100437.66;5075241;28;20042;-66
2022/03/19 07:02:32;;;;;;;44.03;18.95;;;;;;;9.99;60.78;100429.56;5085741;28;20044;-66
2022/03/19 07:04:58;;;;;;;42.63;19.35;;;;;;;9.84;60.73;100433.78;5082489;28;20029;-66
2022/03/19 07:07:23;;;;;;;46.63;22.77;;;;;;;9.92;60.30;100438.25;5071725;28;20091;-66
2022/03/19 07:09:49;;;;;;;43.30;20.27;;;;;;;10.29;59.77;100431.69;5076461;28;20296;-66
2022/03/19 07:12:15;;;;;;;41.10;20.25;;;;;;;10.36;59.26;100430.88;5077839;28;20347;-66
2022/03/19 07:14:41;;;;;;;41.13;19.40;;;;;;;10.99;57.72;100445.47;5085038;28;20045;-66
2022/03/19 07:17:07;;;;;;;46.20;20.38;;;;;;;10.64;57.29;100427.66;5077310;28;20062;-66
2022/03/19 07:19:32;;;;;;;42.47;19.90;;;;;;;10.99;56.84;100436.72;5082900;28;20335;-66
2022/03/19 07:21:58;;;;;;;39.72;20.25;;;;;;;11.34;56.02;100437.84;5085571;28;20025;-66
2022/03/19 07:24:23;;;;;;;45.35;21.85;;;;;;;11.30;55.47;100422.88;5083292;28;20317;-66
2022/03/19 07:26:49;;;;;;;47.88;21.23;;;;;;;11.21;55.23;100438.63;5066461;28;20028;-66
2022/03/19 07:29:18;;;;;;;42.10;20.83;;;;;;;11.71;55.07;100431.91;5081088;28;20443;-66
2022/03/19 07:31:44;;;;;;;38.08;19.35;;;;;;;11.87;56.07;100433.72;5091712;28;20020;-66
2022/03/19 07:34:10;;;;;;;34.13;18.50;;;;;;;11.90;56.26;100428.47;5096591;28;20220;-66
2022/03/19 07:36:35;;;;;;;38.53;18.23;;;;;;;11.86;56.16;100421.41;5085349;28;20288;-66
2022/03/19 07:39:01;;;;;;;37.55;18.85;;;;;;;12.10;56.30;100440.00;5099038;28;20082;-66
2022/03/19 07:44:10;;;;;;;37.50;17.67;;;;;;;12.67;52.19;100445.41;5105479;28;20354;-66
2022/03/19 07:46:36;;;;;;;36.55;20.77;;;;;;;12.57;51.53;100430.38;5099397;28;20052;-66
2022/03/19 07:49:01;;;;;;;42.92;21.02;;;;;;;11.44;52.77;100426.47;5085065;28;20327;-66
2022/03/19 07:51:28;;;;;;;39.00;19.45;;;;;;;12.06;52.02;100430.28;5085289;28;20066;-66
2022/03/19 07:53:53;;;;;;;45.22;20.48;;;;;;;12.49;50.63;100421.59;5084551;28;20247;-66
2022/03/19 07:56:19;;;;;;;49.30;21.00;;;;;;;12.19;50.81;100426.84;5084888;28;20130;-66
2022/03/19 07:58:50;;;;;;;49.95;21.17;;;;;;;12.37;51.67;100410.16;5084879;28;20024;-66
2022/03/19 08:01:17;;;;;;;46.03;20.35;;;;;;;12.42;50.09;100419.81;5084830;28;20028;-66
2022/03/19 08:03:46;;;;;;;43.13;20.02;;;;;;;12.02;50.41;100423.25;5085056;28;20031;-66
2022/03/19 08:06:11;;;;;;;43.42;21.27;;;;;;;12.61;49.83;100411.03;5084265;28;20048;-66
2022/03/19 08:08:40;;;;;;;39.78;19.27;;;;;;;12.37;50.26;100410.16;5084955;28;20032;-66
2022/03/19 08:11:07;;;;;;;36.97;18.65;;;;;;;11.80;50.99;100399.44;5084574;28;20078;-66
2022/03/19 08:13:32;;;;;;;40.80;20.38;;;;;;;12.23;50.39;100410.09;5084397;28;20028;-66
2022/03/19 08:15:58;;;;;;;47.38;20.75;;;;;;;12.43;49.11;100407.47;5084532;28;20095;-66
2022/03/19 08:18:24;;;;;;;45.58;20.85;;;;;;;12.87;48.15;100409.28;5084467;28;20021;-66
2022/03/19 08:20:49;;;;;;;38.45;19.08;;;;;;;13.35;47.52;100404.84;5084671;28;20028;-66
2022/03/19 08:23:15;;;;;;;39.75;20.45;;;;;;;13.52;47.84;100400.38;5085313;28;20370;-66
2022/03/19 08:25:42;;;;;;;34.08;18.35;;;;;;;13.37;47.16;100421.56;5072018;28;20367;-66
2022/03/19 08:28:08;;;;;;;42.00;20.20;;;;;;;12.89;47.73;100396.97;5065123;28;20088;-66
2022/03/19 08:30:34;;;;;;;36.20;18.25;;;;;;;13.28;47.08;100408.38;5065070;28;20227;-66
2022/03/19 08:33:00;;;;;;;37.53;18.67;;;;;;;13.39;46.41;100390.72;5064813;28;20028;-66
2022/03/19 08:35:26;;;;;;;37.22;19.83;;;;;;;13.25;45.61;100384.59;5065057;28;20021;-66
2022/03/19 08:40:15;;;;;;;38.08;19.67;;;;;;;13.81;45.59;100382.63;5065036;28;20024;-66
2022/03/19 08:40:40;;;;;;;34.13;18.02;;;;;;;13.72;45.34;100406.47;5064541;28;20036;-66
2022/03/19 08:43:05;;;;;;;42.30;19.52;;;;;;;13.50;45.59;100381.88;5064933;28;20040;-66
2022/03/19 08:45:31;;;;;;;36.50;19.95;;;;;;;13.01;46.38;100402.25;5064805;28;20024;-66
2022/03/19 08:47:56;;;;;;;39.67;19.77;;;;;;;13.64;45.61;100395.06;5064824;28;20025;-66
2022/03/19 08:50:24;;;;;;;36.78;17.70;;;;;;;13.63;45.64;100403.84;5064798;28;20052;-66
2022/03/19 08:52:49;;;;;;;35.72;18.67;;;;;;;13.49;45.81;100408.31;5064765;28;20098;-66
2022/03/19 08:55:14;;;;;;;42.67;19.15;;;;;;;12.73;46.45;100379.34;5064732;28;20084;-66
2022/03/19 08:57:40;;;;;;;37.47;18.45;;;;;;;12.81;46.40;100403.09;5064636;28;20021;-66
2022/03/19 09:00:08;;;;;;;35.25;17.50;;;;;;;13.00;46.34;100400.50;5064639;28;20316;-66
2022/03/19 09:02:34;;;;;;;33.63;17.27;;;;;;;13.31;45.54;100384.56;5064597;28;20052;-66
2022/03/19 09:05:00;;;;;;;28.67;14.88;;;;;;;13.87;44.83;100388.78;5064507;28;20025;-66
2022/03/19 09:07:25;;;;;;;30.60;17.30;;;;;;;12.93;45.37;100382.84;5064392;28;20114;-66
2022/03/19 09:09:54;;;;;;;32.10;16.92;;;;;;;13.43;45.27;100393.34;5064467;28;20264;-66
2022/03/19 09:12:23;;;;;;;33.35;15.63;;;;;;;13.82;45.14;100389.66;5064282;28;20025;-66
2022/03/19 09:14:49;;;;;;;29.52;16.08;;;;;;;14.63;43.42;100383.91;5064116;28;20094;-66
2022/03/19 09:17:15;;;;;;;33.05;16.70;;;;;;;13.68;44.11;100383.56;5064327;28;20028;-66
2022/03/19 09:19:40;;;;;;;30.90;15.48;;;;;;;13.69;44.32;100377.38;5064275;28;20048;-66
2022/03/19 09:22:07;;;;;;;33.63;16.52;;;;;;;13.86;44.84;100383.50;5064136;28;20055;-66
2022/03/19 09:24:32;;;;;;;33.60;17.35;;;;;;;13.86;44.44;100380.84;5064179;28;20080;-66
2022/03/19 09:26:58;;;;;;;35.40;16.40;;;;;;;14.29;43.46;100382.38;5064114;28;20321;-66
2022/03/19 09:29:24;;;;;;;36.65;16.95;;;;;;;15.06;42.06;100375.56;5064146;28;20325;-66
2022/03/19 09:31:49;;;;;;;36.75;17.42;;;;;;;14.57;42.52;100383.94;5064059;28;20025;-66
2022/03/19 09:34:15;;;;;;;35.65;16.15;;;;;;;14.73;42.33;100369.69;5064309;28;20027;-66
2022/03/19 09:36:46;;;;;;;44.25;16.75;;;;;;;14.24;42.40;100382.41;5063996;28;20099;-66
2022/03/19 09:39:15;;;;;;;35.72;15.68;;;;;;;14.07;42.80;100370.13;5064077;28;20316;-66
2022/03/19 09:41:42;;;;;;;40.00;19.00;;;;;;;14.33;42.79;100362.94;5064233;28;20208;-66
2022/03/19 09:44:08;;;;;;;31.02;17.27;;;;;;;14.58;42.11;100353.91;5063905;28;20028;-66
2022/03/19 09:46:35;;;;;;;39.20;16.95;;;;;;;14.10;43.43;100338.31;5063834;28;20083;-66
2022/03/19 09:49:00;;;;;;;32.97;16.23;;;;;;;14.05;42.89;100350.75;5063873;28;20088;-66
2022/03/19 09:51:27;;;;;;;25.65;14.93;;;;;;;14.67;42.71;100332.63;5063806;28;20025;-66
2022/03/19 09:53:55;;;;;;;33.63;16.95;;;;;;;14.43;43.17;100327.53;5063149;28;20220;-66
2022/03/19 09:56:20;;;;;;;33.88;16.55;;;;;;;14.09;43.08;100336.56;5063740;28;20021;-66
2022/03/19 09:58:48;;;;;;;29.05;15.27;;;;;;;14.59;42.51;100345.06;5063776;28;20104;-66
2022/03/19 10:01:18;;;;;;;35.45;15.68;;;;;;;14.05;44.50;100326.91;5064021;28;20208;-66
2022/03/19 10:03:44;;;;;;;34.83;16.83;;;;;;;13.88;43.87;100348.19;5063754;28;20025;-66
2022/03/19 10:08:59;;;;;;;33.97;17.00;;;;;;;14.23;43.65;100329.44;5063722;28;20251;-66
2022/03/19 10:11:30;;;;;;;30.08;15.82;;;;;;;14.61;44.29;100316.78;5063614;28;20324;-66
2022/03/19 10:13:56;;;;;;;37.50;18.17;;;;;;;13.90;45.13;100313.75;5063701;28;20241;-66
2022/03/19 10:16:28;;;;;;;39.97;19.30;;;;;;;14.08;44.80;100329.53;5063686;28;20076;-66
2022/03/19 10:18:57;;;;;;;;;;;;;;;13.55;45.74;100315.72;5064066;28;20326;-66
2022/03/19 10:21:24;;;;;;;35.95;16.75;;;;;;;13.71;45.84;100309.44;5063587;28;19904;-66
2022/03/19 10:23:49;;;;;;;31.90;16.88;;;;;;;14.15;45.93;100294.16;5063576;28;20028;-66
2022/03/19 10:26:25;;;;;;;33.28;16.98;;;;;;;13.83;46.13;100290.88;5063739;28;20021;-66
2022/03/19 10:29:09;;;;;;;32.40;16.90;;;;;;;13.73;46.84;100339.44;5063494;28;20021;-66
2022/03/19 10:31:39;;;;;;;30.65;16.52;;;;;;;13.75;46.56;100290.91;5063460;28;20027;-66
2022/03/19 10:34:07;;;;;;;31.55;15.85;;;;;;;14.10;46.29;100322.44;5063471;28;20027;-66
2022/03/19 10:36:43;;;;;;;30.52;15.30;;;;;;;14.29;45.84;100297.63;5063481;28;20017;-66
2022/03/19 10:39:18;;;;;;;31.55;16.48;;;;;;;14.31;46.24;100291.44;5063451;28;20023;-66
2022/03/19 10:41:44;;;;;;;36.13;16.90;;;;;;;14.44;45.88;100277.19;5063568;28;20021;-66
2022/03/19 10:44:11;;;;;;;33.13;15.98;;;;;;;13.95;46.64;100270.47;5063347;28;20024;-66
2022/03/19 10:46:37;;;;;;;29.77;15.60;;;;;;;14.46;45.73;100285.13;5063254;28;20029;-66
2022/03/19 10:49:03;;;;;;;31.10;15.48;;;;;;;14.82;46.16;100269.75;5063354;28;20025;-66
2022/03/19 10:51:30;;;;;;;34.53;15.60;;;;;;;14.29;46.42;100271.13;5063313;28;20025;-66
2022/03/19 10:53:57;;;;;;;31.45;15.77;;;;;;;14.82;45.12;100263.56;5063301;28;20032;-66
2022/03/19 10:56:23;;;;;;;28.90;16.05;;;;;;;14.29;44.98;100265.84;5063243;28;20020;-66
2022/03/19 10:58:49;;;;;;;31.42;16.25;;;;;;;14.07;45.33;100265.09;5063231;28;20343;-66
2022/03/19 11:01:16;;;;;;;31.77;15.73;;;;;;;13.90;46.82;100244.94;5063219;28;20040;-66
2022/03/19 11:03:45;;;;;;;25.92;15.43;;;;;;;14.11;46.57;100255.38;5064277;28;20016;-66
2022/03/19 11:06:11;;;;;;;29.88;16.00;;;;;;;14.34;45.49;100248.13;5066752;28;20017;-66
2022/03/19 11:08:41;;;;;;;35.50;14.48;;;;;;;14.06;45.79;100238.63;5066699;28;20028;-66
2022/03/19 11:11:32;;;;;;;27.48;14.70;;;;;;;13.75;46.20;100250.31;5066928;28;20044;-66
2022/03/19 11:13:58;;;;;;;28.88;15.43;;;;;;;13.52;45.97;100220.47;5066437;28;20108;-66
2022/03/19 11:16:26;;;;;;;32.42;15.48;;;;;;;13.72;46.69;100227.41;5066597;28;20029;-66
2022/03/19 11:18:52;;;;;;;28.77;14.45;;;;;;;13.86;46.17;100222.03;5066526;28;20021;-66
2022/03/19 11:21:19;;;;;;;26.25;15.02;;;;;;;13.40;46.65;100215.25;5066791;28;20300;-66
2022/03/19 11:23:50;;;;;;;30.00;13.43;;;;;;;13.74;46.58;100240.63;5066473;28;20025;-66
2022/03/19 11:26:22;;;;;;;25.38;13.70;;;;;;;13.94;47.05;100206.94;5066376;28;20021;-66
2022/03/19 11:28:48;;;;;;;29.63;14.82;;;;;;;14.24;47.62;100193.50;5066512;28;20028;-66